»·PEaware :: N4D KSBP-KPOC

N4D :: KSBP-KPOC

FLIGHT INFORMATION

Flight Status: Arrived
Operator: Privately registered:
United States
More flights under this callsign
Pilot: Alec D. (17934)
Aircraft: BEECH AIRCRAFT A90-E90 KING AIR
(BE9L)
More flights by this aircraft type
Origin: KSBP San Luis Co Regl
United States
Destination: KPOC Brackett
United States
More flights between these airports :: More routes between these airports
Route: RZS V597 DARTS V186 PIRRO
File this flight plan on PilotEdge
Remarks:
Altitude:
(Current/Filed)
15,000ft
Speed:
(Current/Filed)
245kts
Departed: 25-Jul-18 06:57 PM
Arrived: 25-Jul-18 07:56 PM
Distance/Time
Traveled:
157nm/0:59
Distance/Time
To Go:
Arrived

Flight Plot

Page will automatically refresh every two minutes.

Flight plan parsing failed; only flown route is shown


Map Options




Map Legend


Flown Route
Filed Route
Departure Airport
Arrival Airport
Navaid (VOR, NDB)
Fix

Horizontal Profiles

Position Reports

Time Latitude Longitude Heading Altitude Ground
Speed
25-Jul-18 18:32 35.238276 -120.639170 267 217ft 0kts
25-Jul-18 18:33 35.238276 -120.639170 267 217ft 0kts
25-Jul-18 18:34 35.238276 -120.639170 267 217ft 0kts
25-Jul-18 18:35 35.238276 -120.639170 267 217ft 0kts
25-Jul-18 18:36 35.238276 -120.639170 267 217ft 0kts
25-Jul-18 18:37 35.238276 -120.639172 267 217ft 0kts
25-Jul-18 18:38 35.238275 -120.639180 267 217ft 0kts
25-Jul-18 18:39 35.238275 -120.639187 267 217ft 0kts
25-Jul-18 18:40 35.238275 -120.639195 267 217ft 0kts
25-Jul-18 18:41 35.238275 -120.639202 267 217ft 0kts
25-Jul-18 18:42 35.238275 -120.639210 267 217ft 0kts
25-Jul-18 18:43 35.238274 -120.639217 267 217ft 0kts
25-Jul-18 18:44 35.238274 -120.639225 267 217ft 0kts
25-Jul-18 18:45 35.238274 -120.639232 267 217ft 0kts
25-Jul-18 18:46 35.238274 -120.639240 267 217ft 0kts
25-Jul-18 18:47 35.238274 -120.639248 267 217ft 0kts
25-Jul-18 18:48 35.238273 -120.639255 267 217ft 0kts
25-Jul-18 18:49 35.238273 -120.639263 267 217ft 0kts
25-Jul-18 18:50 35.238273 -120.639270 267 217ft 0kts
25-Jul-18 18:51 35.238273 -120.639278 267 217ft 0kts
25-Jul-18 18:52 35.238272 -120.639285 267 217ft 0kts
25-Jul-18 18:53 35.238272 -120.639293 267 217ft 0kts
25-Jul-18 18:54 35.238272 -120.639301 267 217ft 0kts
25-Jul-18 18:55 35.237278 -120.639004 123 217ft 9kts
25-Jul-18 18:56 35.235726 -120.636189 123 217ft 10kts
25-Jul-18 18:57 35.233976 -120.632943 123 217ft 10kts
25-Jul-18 18:58 35.234555 -120.636123 305 217ft 66kts
25-Jul-18 18:59 35.248319 -120.665687 297 1094ft 125kts
25-Jul-18 19:00 35.265813 -120.705610 301 2426ft 140kts
25-Jul-18 19:01 35.271009 -120.751183 217 3662ft 170kts
25-Jul-18 19:02 35.233900 -120.726135 128 5058ft 168kts
25-Jul-18 19:03 35.201218 -120.683037 128 6320ft 174kts
25-Jul-18 19:04 35.168482 -120.639390 129 7615ft 174kts
25-Jul-18 19:05 35.132713 -120.591676 130 8017ft 212kts
25-Jul-18 19:06 35.092919 -120.538744 130 8991ft 198kts
25-Jul-18 19:07 35.057856 -120.492078 130 10397ft 179kts
25-Jul-18 19:08 35.024548 -120.447810 131 11579ft 175kts
25-Jul-18 19:09 34.991488 -120.403945 131 12678ft 174kts
25-Jul-18 19:10 34.958380 -120.360074 131 13688ft 177kts
25-Jul-18 19:11 34.925002 -120.315907 132 14682ft 176kts
25-Jul-18 19:12 34.896253 -120.277914 132 15083ft 195kts
25-Jul-18 19:13 34.849410 -120.216113 132 15074ft 224kts
25-Jul-18 19:14 34.806283 -120.159284 132 15066ft 230kts
25-Jul-18 19:15 34.762572 -120.101790 132 15062ft 232kts
25-Jul-18 19:16 34.718428 -120.043829 132 15052ft 233kts
25-Jul-18 19:17 34.674395 -119.986114 132 15049ft 233kts
25-Jul-18 19:18 34.637744 -119.938143 132 15046ft 232kts
25-Jul-18 19:19 34.593558 -119.880402 132 15032ft 233kts
25-Jul-18 19:20 34.549485 -119.822906 132 15012ft 233kts
25-Jul-18 19:21 34.508314 -119.762905 110 15000ft 233kts
25-Jul-18 19:22 34.493087 -119.673156 101 15007ft 232kts
25-Jul-18 19:23 34.482307 -119.609313 101 15015ft 232kts
25-Jul-18 19:24 34.469265 -119.532424 101 15026ft 232kts
25-Jul-18 19:25 34.456230 -119.455883 101 15035ft 232kts
25-Jul-18 19:26 34.443092 -119.379048 101 15042ft 232kts
25-Jul-18 19:27 34.429948 -119.302485 101 15043ft 232kts
25-Jul-18 19:28 34.416792 -119.226083 102 15046ft 232kts
25-Jul-18 19:29 34.403433 -119.148885 102 15024ft 236kts
25-Jul-18 19:30 34.389946 -119.071276 102 15025ft 236kts
25-Jul-18 19:31 34.376519 -118.994205 102 15042ft 233kts
25-Jul-18 19:32 34.363061 -118.917442 102 15050ft 233kts
25-Jul-18 19:33 34.343634 -118.842614 112 15059ft 234kts
25-Jul-18 19:34 34.318691 -118.769458 112 14994ft 237kts
25-Jul-18 19:35 34.293425 -118.695502 112 14027ft 240kts
25-Jul-18 19:36 34.268182 -118.621784 113 13122ft 234kts
25-Jul-18 19:37 34.243485 -118.549821 113 13004ft 231kts
25-Jul-18 19:38 34.218811 -118.477665 112 12984ft 234kts
25-Jul-18 19:39 34.196735 -118.403759 110 13000ft 235kts
25-Jul-18 19:40 34.174425 -118.329904 111 12996ft 233kts
25-Jul-18 19:41 34.152111 -118.256551 111 12694ft 236kts
25-Jul-18 19:42 34.129325 -118.181816 111 11593ft 236kts
25-Jul-18 19:43 34.110665 -118.106226 96 10501ft 237kts
25-Jul-18 19:44 34.106791 -118.026901 98 9400ft 234kts
25-Jul-18 19:45 34.094132 -117.950454 104 8302ft 231kts
25-Jul-18 19:46 34.080038 -117.874957 103 7199ft 230kts
25-Jul-18 19:47 34.065903 -117.801072 103 6101ft 224kts
25-Jul-18 19:48 34.051793 -117.728317 103 4998ft 222kts
25-Jul-18 19:49 34.037623 -117.657269 103 4042ft 212kts
25-Jul-18 19:50 34.025041 -117.594905 103 3953ft 175kts
25-Jul-18 19:51 34.041650 -117.553078 358 3700ft 179kts
25-Jul-18 19:52 34.076353 -117.578068 288 3177ft 152kts
25-Jul-18 19:53 34.084421 -117.626897 263 3166ft 145kts
25-Jul-18 19:54 34.087267 -117.674562 272 3147ft 139kts
25-Jul-18 19:55 34.088508 -117.721101 273 2118ft 123kts
25-Jul-18 19:56 34.090245 -117.758834 271 1397ft 104kts
25-Jul-18 19:57 34.091414 -117.784326 257 1016ft 15kts
25-Jul-18 19:58 34.090925 -117.784565 182 1016ft 0kts
25-Jul-18 19:59 34.090625 -117.784151 95 1016ft 4kts
25-Jul-18 20:00 34.089497 -117.782209 198 1016ft 12kts
25-Jul-18 20:01 34.089544 -117.782723 274 1016ft 0kts
25-Jul-18 20:02 34.089545 -117.782728 274 1016ft 0kts
25-Jul-18 20:03 34.089545 -117.782733 274 1016ft 0kts
25-Jul-18 20:04 34.089545 -117.782736 274 1016ft 0kts
25-Jul-18 20:05 34.089546 -117.782744 274 1016ft 0kts
25-Jul-18 20:06 34.089546 -117.782744 274 1016ft 0kts
25-Jul-18 20:07 34.089546 -117.782744 274 1016ft 0kts
25-Jul-18 20:08 34.089546 -117.782744 274 1016ft 0kts
25-Jul-18 20:09 34.089546 -117.782744 274 1016ft 0kts
25-Jul-18 20:10 34.089546 -117.782744 274 1016ft 0kts
25-Jul-18 20:11 34.089546 -117.782744 274 1016ft 0kts

Navigation Log

Ident Type
Flight plan parsing failed, navigation log unavailable